Time;durP1;ratioP1;P1;durP2;ratioP2;P2;SDS_P1;SDS_P2;PMS_P1;PMS_P2;Temp;Humidity;BMP_temperature;BMP_pressure;BME280_temperature;BME280_humidity;BME280_pressure;Samples;Min_cycle;Max_cycle;Signal;HPM_P1;HPM_P2
2023/07/03 00:00:06;;;;;;;14.30;4.43;;;15.50;99.90;;;;;;5073867;28;20062;-56
2023/07/03 00:02:32;;;;;;;17.25;4.30;;;15.50;99.90;;;;;;5073979;28;20360;-56
2023/07/03 00:04:58;;;;;;;13.43;4.03;;;15.40;99.90;;;;;;5074452;28;20048;-56
2023/07/03 00:07:24;;;;;;;16.40;4.80;;;15.40;99.90;;;;;;5075131;28;20139;-56
2023/07/03 00:09:49;;;;;;;15.38;4.57;;;15.60;99.90;;;;;;5074547;28;20044;-56
2023/07/03 00:12:15;;;;;;;17.80;4.43;;;15.40;99.90;;;;;;5074107;28;20048;-56
2023/07/03 00:14:41;;;;;;;17.35;4.10;;;15.50;99.90;;;;;;5075074;28;20589;-56
2023/07/03 00:17:07;;;;;;;15.65;4.22;;;15.40;99.90;;;;;;5074185;28;20046;-56
2023/07/03 00:19:33;;;;;;;11.63;4.03;;;15.60;99.90;;;;;;5074517;28;20557;-57
2023/07/03 00:22:00;;;;;;;16.30;4.45;;;15.60;99.90;;;;;;5073723;28;20040;-56
2023/07/03 00:24:28;;;;;;;14.93;4.57;;;15.40;99.90;;;;;;5073922;28;20210;-56
2023/07/03 00:26:55;;;;;;;13.52;4.20;;;15.60;99.90;;;;;;5055011;28;20048;-56
2023/07/03 00:29:21;;;;;;;17.13;4.13;;;15.30;99.90;;;;;;5073157;28;20055;-56
2023/07/03 00:31:46;;;;;;;18.40;5.22;;;15.60;99.90;;;;;;5072968;28;20056;-56
2023/07/03 00:34:12;;;;;;;17.58;4.43;;;15.40;99.90;;;;;;5055403;28;20063;-56
2023/07/03 00:36:38;;;;;;;14.18;3.92;;;15.30;99.90;;;;;;5072200;28;20747;-56
2023/07/03 00:39:04;;;;;;;18.08;5.15;;;15.50;99.90;;;;;;5072778;28;20048;-57
2023/07/03 00:41:31;;;;;;;16.15;4.68;;;15.40;99.90;;;;;;5072700;28;20900;-56
2023/07/03 00:43:57;;;;;;;15.20;3.70;;;15.40;99.90;;;;;;5072112;28;20043;-56
2023/07/03 00:46:24;;;;;;;13.63;4.47;;;15.40;99.90;;;;;;5073443;28;20044;-57
2023/07/03 00:48:50;;;;;;;10.98;4.38;;;15.50;99.90;;;;;;5073197;28;20232;-56
2023/07/03 00:51:17;;;;;;;13.75;4.05;;;15.30;99.90;;;;;;5072443;28;20093;-56
2023/07/03 00:53:43;;;;;;;14.32;3.78;;;15.50;99.90;;;;;;5072836;28;20363;-56
2023/07/03 00:56:10;;;;;;;13.30;3.92;;;15.30;99.90;;;;;;5072731;28;20051;-56
2023/07/03 00:58:36;;;;;;;14.43;4.47;;;15.30;99.90;;;;;;5072686;28;20367;-56
2023/07/03 01:01:27;;;;;;;12.82;3.65;;;15.00;99.90;;;;;;5073166;28;20063;-56
2023/07/03 01:04:07;;;;;;;12.82;3.50;;;15.40;99.90;;;;;;5073502;28;20040;-56
2023/07/03 01:06:40;;;;;;;15.07;3.90;;;15.20;99.90;;;;;;5072227;28;20408;-56
2023/07/03 01:09:10;;;;;;;14.93;3.65;;;15.50;99.90;;;;;;5073344;28;20479;-56
2023/07/03 01:11:36;;;;;;;16.30;4.05;;;15.30;99.90;;;;;;5073681;28;20458;-56
2023/07/03 01:14:05;;;;;;;17.08;4.13;;;15.40;99.90;;;;;;5055134;28;20382;-56
2023/07/03 01:16:33;;;;;;;19.65;3.45;;;15.40;99.90;;;;;;5055395;28;20047;-56
2023/07/03 01:19:00;;;;;;;13.07;3.90;;;15.50;99.90;;;;;;5072563;28;20075;-56
2023/07/03 01:21:39;;;;;;;16.30;4.60;;;15.40;99.90;;;;;;5073640;28;20917;-56
2023/07/03 01:24:12;;;;;;;16.73;3.60;;;15.50;99.90;;;;;;5073907;28;20171;-56
2023/07/03 01:26:41;;;;;;;16.25;3.30;;;15.30;99.90;;;;;;5073038;28;20040;-56
2023/07/03 01:29:09;;;;;;;11.88;3.42;;;14.60;99.90;;;;;;5073170;28;20156;-56
2023/07/03 01:31:37;;;;;;;16.15;3.42;;;15.40;99.90;;;;;;5072865;28;20044;-56
2023/07/03 01:34:05;;;;;;;13.15;4.18;;;15.40;99.90;;;;;;5073747;28;20036;-56
2023/07/03 01:36:32;;;;;;;13.18;3.42;;;15.20;99.90;;;;;;5073259;28;20117;-57
2023/07/03 01:39:00;;;;;;;14.00;4.68;;;15.30;99.90;;;;;;5073625;28;20036;-56
2023/07/03 01:41:28;;;;;;;14.45;3.10;;;15.30;99.90;;;;;;5073694;28;20116;-57
2023/07/03 01:43:53;;;;;;;16.42;4.45;;;15.20;99.90;;;;;;5072537;28;20036;-56
2023/07/03 01:46:20;;;;;;;14.00;2.75;;;15.30;99.90;;;;;;5072232;28;20544;-57
2023/07/03 01:48:45;;;;;;;10.68;2.85;;;15.20;99.90;;;;;;5072629;28;20051;-57
2023/07/03 01:51:16;;;;;;;10.90;3.38;;;15.20;99.90;;;;;;5073322;28;20044;-55
2023/07/03 01:54:06;;;;;;;19.25;3.97;;;15.30;99.90;;;;;;5074085;28;20039;-56
2023/07/03 01:56:36;;;;;;;12.80;3.03;;;15.20;99.90;;;;;;5071154;28;20052;-56
2023/07/03 01:59:13;;;;;;;11.13;3.17;;;15.20;99.90;;;;;;5054502;28;20063;-56
2023/07/03 02:02:04;;;;;;;12.32;3.17;;;15.20;99.90;;;;;;5071651;28;20501;-56
2023/07/03 02:04:33;;;;;;;15.47;3.33;;;15.00;99.90;;;;;;5072520;28;20062;-56
2023/07/03 02:07:01;;;;;;;9.27;2.28;;;15.10;99.90;;;;;;5071367;28;20086;-56
2023/07/03 02:09:28;;;;;;;12.98;3.25;;;15.20;99.90;;;;;;5072841;28;20291;-56
2023/07/03 02:11:55;;;;;;;17.73;3.00;;;17.10;99.90;;;;;;5071827;28;20047;-56
2023/07/03 02:14:24;;;;;;;12.95;2.47;;;15.00;99.90;;;;;;5054442;28;20044;-55
2023/07/03 02:16:51;;;;;;;12.00;2.55;;;15.20;99.90;;;;;;5071399;28;20412;-56
2023/07/03 02:19:17;;;;;;;11.07;2.65;;;15.10;99.90;;;;;;5074674;28;20036;-56
2023/07/03 02:21:46;;;;;;;13.90;2.50;;;15.00;99.90;;;;;;5074972;28;20541;-56
2023/07/03 02:24:12;;;;;;;9.75;2.17;;;15.00;99.90;;;;;;5076610;28;20040;-56
2023/07/03 02:26:38;;;;;;;15.43;2.78;;;14.60;99.90;;;;;;5075486;28;20047;-56
2023/07/03 02:29:04;;;;;;;10.45;2.05;;;15.00;99.90;;;;;;5074670;28;20055;-56
2023/07/03 02:31:30;;;;;;;9.75;2.10;;;14.80;99.90;;;;;;5075228;28;20095;-56
2023/07/03 02:33:56;;;;;;;10.38;2.25;;;14.80;99.90;;;;;;5076214;28;20093;-56
2023/07/03 02:36:25;;;;;;;16.73;2.75;;;14.80;99.90;;;;;;5075650;28;20416;-56
2023/07/03 02:38:50;;;;;;;9.88;2.08;;;14.80;99.90;;;;;;5074876;28;20401;-56
2023/07/03 02:41:21;;;;;;;10.55;2.15;;;14.70;99.90;;;;;;5075003;28;20040;-56
2023/07/03 02:43:46;;;;;;;12.35;2.28;;;14.70;99.90;;;;;;5074665;28;20072;-56
2023/07/03 02:46:12;;;;;;;12.85;2.40;;;14.70;99.90;;;;;;5074814;28;20638;-56
2023/07/03 02:48:39;;;;;;;12.20;2.53;;;14.60;99.90;;;;;;5073609;28;20243;-57
2023/07/03 02:51:05;;;;;;;11.00;2.67;;;14.60;99.90;;;;;;5076071;28;20044;-56
2023/07/03 02:53:31;;;;;;;10.15;2.00;;;14.50;99.90;;;;;;5057354;28;20849;-56
2023/07/03 02:55:56;;;;;;;11.38;2.20;;;14.30;99.90;;;;;;5075853;28;20197;-56
2023/07/03 02:58:23;;;;;;;14.73;2.63;;;14.60;99.90;;;;;;5075517;28;20040;-56
2023/07/03 03:00:50;;;;;;;9.10;2.20;;;14.60;99.90;;;;;;5075254;28;20136;-56
2023/07/03 03:03:16;;;;;;;10.63;2.13;;;14.40;99.90;;;;;;5076660;28;20054;-56
2023/07/03 03:05:42;;;;;;;11.90;2.00;;;14.40;99.90;;;;;;5076549;28;20416;-56
2023/07/03 03:08:08;;;;;;;12.75;2.30;;;14.10;99.90;;;;;;5076302;28;20067;-56
2023/07/03 03:10:34;;;;;;;12.85;2.50;;;14.20;99.90;;;;;;5074931;28;20040;-56
2023/07/03 03:12:59;;;;;;;13.07;2.45;;;14.30;99.90;;;;;;5075920;28;20056;-56
2023/07/03 03:15:26;;;;;;;11.43;2.42;;;14.30;99.90;;;;;;5057106;28;20473;-56
2023/07/03 03:17:52;;;;;;;11.82;2.28;;;14.10;99.90;;;;;;5075084;28;20501;-56
2023/07/03 03:20:18;;;;;;;9.68;1.95;;;13.90;99.90;;;;;;5076707;28;20040;-56
2023/07/03 03:22:44;;;;;;;13.40;2.50;;;14.20;99.90;;;;;;5074306;28;20357;-56
2023/07/03 03:25:10;;;;;;;10.20;2.78;;;14.30;99.90;;;;;;5074865;28;20044;-56
2023/07/03 03:27:35;;;;;;;12.65;2.03;;;14.10;99.90;;;;;;5056269;28;20469;-56
2023/07/03 03:30:01;;;;;;;9.77;2.22;;;14.20;99.90;;;;;;5055757;28;20052;-56
2023/07/03 03:32:28;;;;;;;10.60;2.10;;;14.10;99.90;;;;;;5073521;28;20128;-56
2023/07/03 03:34:54;;;;;;;13.25;2.65;;;13.90;99.90;;;;;;5073865;28;20044;-56
2023/07/03 03:37:21;;;;;;;9.98;2.63;;;14.00;99.90;;;;;;5074303;28;20578;-56
2023/07/03 03:39:47;;;;;;;9.32;2.58;;;13.90;99.90;;;;;;5073640;28;20044;-56
2023/07/03 03:42:12;;;;;;;14.02;2.53;;;13.70;99.90;;;;;;5074603;28;20567;-56
2023/07/03 03:44:38;;;;;;;8.73;2.13;;;13.80;99.90;;;;;;5072468;28;20051;-56
2023/07/03 03:47:05;;;;;;;14.80;2.45;;;14.00;99.90;;;;;;5073840;28;20970;-56
2023/07/03 03:49:31;;;;;;;13.38;2.00;;;13.80;99.90;;;;;;5073658;28;20136;-56
2023/07/03 03:51:56;;;;;;;10.13;2.08;;;13.90;99.90;;;;;;5056108;28;20083;-56
2023/07/03 03:54:22;;;;;;;15.95;2.78;;;13.90;99.90;;;;;;5073075;28;20368;-56
2023/07/03 03:56:48;;;;;;;12.88;2.38;;;13.80;99.90;;;;;;5073971;28;20038;-55
2023/07/03 03:59:14;;;;;;;11.48;2.53;;;13.80;99.90;;;;;;5073896;28;20043;-56
2023/07/03 04:01:42;;;;;;;16.35;2.58;;;13.70;99.90;;;;;;5072583;28;20417;-56
2023/07/03 04:04:07;;;;;;;9.38;2.08;;;13.70;99.90;;;;;;5073710;28;20130;-56
2023/07/03 04:06:35;;;;;;;12.55;3.05;;;13.80;99.90;;;;;;5074231;28;20046;-56
2023/07/03 04:09:01;;;;;;;14.93;2.35;;;14.00;99.90;;;;;;5074487;28;20457;-56
2023/07/03 04:11:28;;;;;;;11.40;2.40;;;13.90;99.90;;;;;;5074036;28;20050;-57
2023/07/03 04:13:54;;;;;;;15.15;2.83;;;13.80;99.90;;;;;;5073993;28;20330;-55
2023/07/03 04:16:20;;;;;;;14.07;2.78;;;14.00;99.90;;;;;;5073756;28;21118;-56
2023/07/03 04:18:46;;;;;;;11.55;2.80;;;14.00;99.90;;;;;;5074392;28;20471;-56
2023/07/03 04:21:12;;;;;;;9.98;1.88;;;13.90;99.90;;;;;;5074262;28;20035;-56
2023/07/03 04:23:38;;;;;;;14.63;2.60;;;14.00;99.90;;;;;;5073553;28;20040;-56
2023/07/03 04:26:04;;;;;;;8.98;2.40;;;13.20;99.90;;;;;;5074341;28;20060;-56
2023/07/03 04:28:30;;;;;;;14.88;2.33;;;14.10;99.90;;;;;;5074090;28;20051;-56
2023/07/03 04:30:56;;;;;;;12.30;2.20;;;14.10;99.90;;;;;;5074751;28;20271;-55
2023/07/03 04:33:22;;;;;;;13.80;2.60;;;14.20;99.90;;;;;;5073532;28;20445;-56
2023/07/03 04:35:48;;;;;;;9.90;2.10;;;14.30;99.90;;;;;;5057203;28;20382;-55
2023/07/03 04:38:18;;;;;;;9.85;2.30;;;14.30;99.90;;;;;;5056437;28;20044;-56
2023/07/03 04:40:45;;;;;;;13.88;2.30;;;14.40;99.90;;;;;;5073247;28;20036;-56
2023/07/03 04:43:11;;;;;;;13.52;2.85;;;14.40;99.90;;;;;;5073045;28;20115;-56
2023/07/03 04:45:42;;;;;;;12.30;3.08;;;14.50;99.90;;;;;;5073215;28;20097;-56
2023/07/03 04:48:09;;;;;;;14.20;2.40;;;14.40;99.90;;;;;;5071916;28;20738;-56
2023/07/03 04:50:35;;;;;;;12.00;2.22;;;14.60;99.90;;;;;;5072699;28;20032;-56
2023/07/03 04:53:00;;;;;;;11.27;2.22;;;14.40;99.90;;;;;;5054481;28;20530;-56
2023/07/03 04:55:26;;;;;;;13.55;2.60;;;14.60;99.90;;;;;;5072525;28;20051;-56
2023/07/03 04:57:52;;;;;;;11.40;2.58;;;14.70;99.90;;;;;;5072171;28;20326;-56
2023/07/03 05:00:19;;;;;;;9.65;2.10;;;14.60;99.90;;;;;;5073596;28;20047;-56
2023/07/03 05:02:48;;;;;;;14.25;2.72;;;14.80;99.90;;;;;;5033562;28;20049;-56
2023/07/03 05:05:16;;;;;;;16.42;2.90;;;14.80;99.90;;;;;;5032338;28;20506;-56
2023/07/03 05:07:43;;;;;;;11.73;3.10;;;14.90;99.90;;;;;;5031105;28;20057;-56
2023/07/03 05:10:10;;;;;;;10.55;2.20;;;15.00;99.90;;;;;;5031726;28;20524;-56
2023/07/03 05:12:37;;;;;;;10.95;2.38;;;15.00;99.90;;;;;;5032533;28;20169;-56
2023/07/03 05:15:07;;;;;;;9.82;2.08;;;15.10;99.90;;;;;;5032967;28;20465;-56
2023/07/03 05:17:34;;;;;;;13.88;2.40;;;15.10;99.90;;;;;;5033408;28;20067;-56
2023/07/03 05:20:06;;;;;;;15.52;2.40;;;15.30;99.90;;;;;;5032579;28;20570;-56
2023/07/03 05:22:32;;;;;;;12.45;2.30;;;15.30;99.90;;;;;;5032619;28;20123;-56
2023/07/03 05:24:59;;;;;;;12.35;2.88;;;15.40;99.90;;;;;;5031751;28;20040;-56
2023/07/03 05:27:25;;;;;;;12.90;2.40;;;15.40;99.90;;;;;;5033024;28;20041;-56
2023/07/03 05:29:51;;;;;;;16.48;3.28;;;15.30;99.90;;;;;;5032322;28;20083;-56
2023/07/03 05:32:17;;;;;;;19.83;3.05;;;15.40;99.90;;;;;;5032224;28;20140;-56
2023/07/03 05:34:43;;;;;;;17.35;2.70;;;15.30;99.90;;;;;;5033473;28;20083;-56
2023/07/03 05:37:08;;;;;;;16.50;2.72;;;15.20;99.90;;;;;;5033411;28;20470;-56
2023/07/03 05:39:34;;;;;;;14.55;2.10;;;15.20;99.90;;;;;;5033647;28;20071;-55
2023/07/03 05:42:01;;;;;;;13.50;3.20;;;15.00;99.90;;;;;;5033437;28;20394;-56
2023/07/03 05:44:27;;;;;;;13.95;2.60;;;14.90;99.90;;;;;;5033648;28;20045;-55
2023/07/03 05:46:53;;;;;;;14.82;2.60;;;14.80;99.90;;;;;;5033375;28;20063;-55
2023/07/03 05:49:18;;;;;;;15.73;2.60;;;14.80;99.90;;;;;;5031913;28;20486;-56
2023/07/03 05:51:44;;;;;;;13.30;2.28;;;14.80;99.90;;;;;;5033198;28;20418;-55
2023/07/03 05:54:10;;;;;;;13.02;3.03;;;15.00;99.90;;;;;;5036914;28;20083;-55
2023/07/03 05:56:36;;;;;;;15.38;2.33;;;15.10;99.90;;;;;;5036836;28;20068;-55
2023/07/03 05:59:01;;;;;;;15.90;2.65;;;15.20;99.90;;;;;;5036728;28;20132;-55
2023/07/03 06:01:28;;;;;;;13.52;2.80;;;15.60;99.90;;;;;;5049751;28;20062;-55
2023/07/03 06:03:54;;;;;;;9.63;2.05;;;13.60;99.90;;;;;;5076311;28;20044;-55
2023/07/03 06:06:19;;;;;;;9.30;2.03;;;15.70;99.90;;;;;;5078404;28;20046;-56
2023/07/03 06:08:45;;;;;;;15.50;2.72;;;16.10;99.90;;;;;;5057720;28;20489;-56
2023/07/03 06:11:11;;;;;;;13.02;2.40;;;16.00;99.90;;;;;;5058895;28;20042;-56
2023/07/03 06:13:37;;;;;;;11.45;2.35;;;16.10;99.90;;;;;;5075195;28;20075;-56
2023/07/03 06:16:03;;;;;;;14.25;2.20;;;16.10;99.90;;;;;;5075206;28;20128;-56
2023/07/03 06:18:29;;;;;;;8.98;1.52;;;15.90;99.90;;;;;;5074841;28;20416;-56
2023/07/03 06:20:55;;;;;;;8.90;2.00;;;16.10;99.90;;;;;;5041233;28;20047;-56
2023/07/03 06:23:20;;;;;;;11.40;1.88;;;16.00;99.90;;;;;;5074516;28;20048;-56
2023/07/03 06:25:46;;;;;;;10.65;2.00;;;16.60;99.90;;;;;;5074720;28;20043;-56
2023/07/03 06:28:13;;;;;;;7.63;1.52;;;16.10;99.90;;;;;;5074412;28;20637;-56
2023/07/03 06:30:39;;;;;;;13.57;1.90;;;16.10;99.90;;;;;;5075849;28;20441;-56
2023/07/03 06:33:04;;;;;;;8.60;1.90;;;15.80;99.90;;;;;;5073955;28;20048;-56
2023/07/03 06:35:30;;;;;;;10.38;1.58;;;15.90;99.90;;;;;;5075729;28;20054;-55
2023/07/03 06:37:58;;;;;;;7.18;1.75;;;15.60;99.90;;;;;;5074735;28;20090;-55
2023/07/03 06:40:24;;;;;;;12.85;2.22;;;15.40;99.90;;;;;;5075116;28;20039;-55
2023/07/03 06:42:52;;;;;;;11.07;2.00;;;15.20;99.90;;;;;;5074400;28;20040;-57
2023/07/03 06:45:18;;;;;;;7.43;1.65;;;15.00;99.90;;;;;;5074321;28;20066;-56
2023/07/03 06:47:43;;;;;;;12.52;2.22;;;15.00;99.90;;;;;;5074226;28;20484;-57
2023/07/03 06:50:10;;;;;;;7.85;1.50;;;14.70;99.90;;;;;;5075283;28;20036;-55
2023/07/03 06:52:36;;;;;;;10.25;1.77;;;14.70;99.90;;;;;;5073585;28;20183;-55
2023/07/03 06:55:03;;;;;;;10.25;1.90;;;14.80;99.90;;;;;;5073693;28;20036;-56
2023/07/03 06:57:29;;;;;;;8.48;2.00;;;14.60;99.90;;;;;;5073964;28;21259;-55
2023/07/03 06:59:55;;;;;;;11.00;1.98;;;14.60;99.90;;;;;;5074581;28;20039;-55
2023/07/03 07:02:21;;;;;;;11.05;2.28;;;14.30;99.90;;;;;;5055974;28;20060;-56
2023/07/03 07:04:46;;;;;;;9.98;2.05;;;15.00;99.90;;;;;;5055710;28;20054;-55
2023/07/03 07:07:12;;;;;;;11.50;2.40;;;15.20;99.90;;;;;;5075211;28;20044;-56
2023/07/03 07:09:38;;;;;;;10.60;1.70;;;15.60;99.90;;;;;;5074917;28;20430;-56
2023/07/03 07:12:04;;;;;;;8.90;2.20;;;15.80;99.90;;;;;;5055254;28;20599;-56
2023/07/03 07:14:29;;;;;;;11.75;1.83;;;15.90;99.90;;;;;;5074342;28;20069;-56
2023/07/03 07:16:57;;;;;;;8.65;2.00;;;15.80;99.90;;;;;;5075528;28;20259;-54
2023/07/03 07:19:22;;;;;;;9.32;1.83;;;15.80;99.90;;;;;;5074207;28;20036;-54
2023/07/03 07:21:49;;;;;;;12.48;2.35;;;15.70;99.90;;;;;;5055465;28;20581;-56
2023/07/03 07:24:20;;;;;;;12.18;2.08;;;15.70;99.90;;;;;;5074308;28;20043;-56
2023/07/03 07:26:48;;;;;;;12.52;2.20;;;15.80;99.90;;;;;;5055001;28;20050;-54
2023/07/03 07:29:14;;;;;;;9.57;1.98;;;15.70;99.90;;;;;;5075088;28;20422;-56
2023/07/03 07:31:39;;;;;;;9.48;1.88;;;15.40;99.90;;;;;;5074251;28;20039;-56
2023/07/03 07:34:07;;;;;;;9.43;1.67;;;15.50;99.90;;;;;;5072753;28;20051;-56
2023/07/03 07:36:33;;;;;;;14.48;1.80;;;15.50;99.90;;;;;;5074147;28;20409;-56
2023/07/03 07:39:01;;;;;;;11.88;1.85;;;15.40;99.90;;;;;;5072662;28;20055;-56
2023/07/03 07:41:27;;;;;;;7.93;1.23;;;15.50;99.90;;;;;;5074738;28;20072;-56
2023/07/03 07:43:54;;;;;;;8.75;1.50;;;15.80;99.90;;;;;;5073785;28;20136;-56
2023/07/03 07:46:21;;;;;;;9.80;1.70;;;15.60;99.90;;;;;;5073002;28;20047;-56
2023/07/03 07:48:47;;;;;;;10.48;1.70;;;15.80;99.90;;;;;;5072152;28;20174;-56
2023/07/03 07:51:13;;;;;;;9.27;2.63;;;15.70;99.90;;;;;;5073765;28;20104;-57
2023/07/03 07:53:39;;;;;;;5.00;1.35;;;15.80;99.90;;;;;;5072719;28;20493;-56
2023/07/03 07:56:07;;;;;;;11.32;1.70;;;16.00;99.90;;;;;;5072159;28;20044;-56
2023/07/03 07:58:34;;;;;;;7.35;1.58;;;16.00;99.90;;;;;;5072686;28;20075;-56
2023/07/03 08:01:00;;;;;;;10.55;1.88;;;15.90;99.90;;;;;;5072321;28;20079;-56
2023/07/03 08:03:27;;;;;;;11.80;1.83;;;15.90;99.90;;;;;;5073320;28;20044;-54
2023/07/03 08:06:01;;;;;;;10.98;1.77;;;16.00;99.90;;;;;;5074382;28;20368;-56
2023/07/03 08:08:27;;;;;;;8.50;1.60;;;16.00;99.90;;;;;;5073080;28;20111;-55
2023/07/03 08:10:55;;;;;;;10.80;1.38;;;16.10;99.90;;;;;;5072202;28;20044;-56
2023/07/03 08:13:20;;;;;;;9.57;1.85;;;16.40;99.90;;;;;;5072498;28;20491;-57
2023/07/03 08:15:47;;;;;;;9.05;1.50;;;16.90;99.90;;;;;;5072256;28;20547;-56
2023/07/03 08:18:15;;;;;;;8.30;2.50;;;18.20;99.90;;;;;;5055095;28;20118;-56
2023/07/03 08:20:41;;;;;;;7.82;1.42;;;19.20;99.90;;;;;;5073269;28;20097;-56
2023/07/03 08:23:06;;;;;;;7.22;1.63;;;19.30;99.90;;;;;;5072512;28;20044;-56
2023/07/03 08:25:32;;;;;;;7.78;1.40;;;19.00;99.90;;;;;;5073296;28;20087;-56
2023/07/03 08:27:58;;;;;;;8.18;1.40;;;18.80;99.90;;;;;;5074115;28;20109;-56
2023/07/03 08:30:23;;;;;;;8.65;1.70;;;18.80;99.90;;;;;;5073097;28;20118;-56
2023/07/03 08:32:49;;;;;;;6.53;1.30;;;19.30;99.90;;;;;;5072853;28;20526;-57
2023/07/03 08:35:16;;;;;;;3.55;1.02;;;19.20;99.90;;;;;;5074001;28;20306;-56
2023/07/03 08:37:43;;;;;;;6.85;1.40;;;20.10;99.90;;;;;;5074573;28;21125;-55
2023/07/03 08:40:10;;;;;;;5.43;1.08;;;18.80;99.90;;;;;;5072904;28;20056;-56
2023/07/03 08:42:44;;;;;;;12.40;1.80;;;18.10;99.90;;;;;;5073028;28;20077;-56
2023/07/03 08:45:14;;;;;;;11.50;1.70;;;18.20;99.90;;;;;;5073799;28;20105;-56
2023/07/03 08:47:41;;;;;;;4.93;1.23;;;17.80;99.90;;;;;;5073340;28;20374;-55
2023/07/03 08:50:10;;;;;;;7.57;1.55;;;17.50;99.90;;;;;;5072607;28;20052;-56
2023/07/03 08:52:44;;;;;;;7.55;1.45;;;17.60;99.90;;;;;;5072707;28;20138;-56
2023/07/03 08:55:16;;;;;;;4.80;1.15;;;17.20;99.90;;;;;;5072908;28;20078;-55
2023/07/03 08:57:41;;;;;;;5.75;1.50;;;16.90;99.90;;;;;;5072704;28;20028;-55
2023/07/03 09:00:12;;;;;;;11.32;1.80;;;19.00;99.90;;;;;;5072565;28;20063;-56
2023/07/03 09:02:43;;;;;;;6.20;1.92;;;17.10;99.90;;;;;;5072256;28;20108;-56
2023/07/03 09:05:12;;;;;;;5.90;1.48;;;17.10;99.90;;;;;;5072824;28;20114;-54
2023/07/03 09:07:52;;;;;;;8.48;1.45;;;17.10;99.90;;;;;;5072448;28;20056;-56
2023/07/03 09:10:25;;;;;;;9.10;1.58;;;16.90;99.90;;;;;;5072596;28;20087;-56
2023/07/03 09:13:11;;;;;;;13.70;1.95;;;17.10;99.90;;;;;;5071708;28;20063;-56
2023/07/03 09:16:01;;;;;;;9.40;1.75;;;18.30;99.90;;;;;;5072105;28;20048;-56
2023/07/03 09:18:30;;;;;;;8.77;1.63;;;16.50;99.90;;;;;;5051843;28;20093;-57
2023/07/03 09:20:57;;;;;;;9.50;1.60;;;16.40;99.90;;;;;;5071766;28;20537;-56
2023/07/03 09:23:47;;;;;;;9.25;1.48;;;16.30;99.90;;;;;;5070872;28;20052;-58
2023/07/03 09:26:18;;;;;;;8.38;1.80;;;16.30;99.90;;;;;;5030212;28;20047;-56
2023/07/03 09:28:44;;;;;;;9.43;1.30;;;16.40;99.90;;;;;;5074387;28;20032;-57
2023/07/03 09:31:10;;;;;;;10.05;1.50;;;16.30;99.90;;;;;;5075772;28;20036;-57
2023/07/03 09:33:36;;;;;;;9.70;1.50;;;16.30;99.90;;;;;;5075515;28;20055;-57
2023/07/03 09:36:39;;;;;;;7.88;1.42;;;16.50;99.90;;;;;;5077034;28;20203;-56
2023/07/03 09:39:13;;;;;;;9.48;2.10;;;16.30;99.90;;;;;;5074455;28;20129;-56
2023/07/03 09:41:40;;;;;;;5.82;1.00;;;16.40;99.90;;;;;;5075062;28;20048;-56
2023/07/03 09:44:10;;;;;;;7.72;1.13;;;16.40;99.90;;;;;;5075462;28;20470;-56
2023/07/03 09:46:36;;;;;;;8.13;1.20;;;16.20;99.90;;;;;;5075716;28;20909;-56
2023/07/03 09:49:03;;;;;;;6.50;1.15;;;16.10;99.90;;;;;;5075781;28;20724;-56
2023/07/03 09:51:30;;;;;;;4.95;1.05;;;16.10;99.90;;;;;;5075165;28;20081;-56
2023/07/03 09:53:59;;;;;;;6.25;1.45;;;15.90;99.90;;;;;;5074887;28;20036;-56
2023/07/03 09:56:29;;;;;;;10.07;1.55;;;15.70;99.90;;;;;;5075707;28;20520;-56
2023/07/03 09:59:00;;;;;;;7.18;1.20;;;15.40;99.90;;;;;;5075280;28;20094;-56
2023/07/03 10:01:31;;;;;;;4.93;1.10;;;15.50;99.90;;;;;;5075765;28;20394;-56
2023/07/03 10:04:05;;;;;;;8.80;1.67;;;15.10;99.90;;;;;;5074536;28;20048;-56
2023/07/03 10:06:30;;;;;;;7.72;1.67;;;15.00;99.90;;;;;;5077038;28;20286;-56
2023/07/03 10:09:01;;;;;;;9.73;1.95;;;14.80;99.90;;;;;;5076635;28;20036;-56
2023/07/03 10:11:43;;;;;;;8.52;1.40;;;14.50;99.90;;;;;;5075918;28;20370;-56
2023/07/03 10:14:17;;;;;;;5.70;1.23;;;14.60;99.90;;;;;;5076598;28;20051;-56
2023/07/03 10:16:43;;;;;;;8.13;1.52;;;14.50;99.90;;;;;;5076181;28;20129;-56
2023/07/03 10:19:10;;;;;;;6.72;1.30;;;15.00;99.90;;;;;;5075010;28;20043;-56
2023/07/03 10:21:38;;;;;;;7.60;1.50;;;15.40;99.90;;;;;;5075609;28;20047;-56
2023/07/03 10:24:05;;;;;;;8.90;1.35;;;16.00;99.90;;;;;;5075353;28;20561;-56
2023/07/03 10:26:42;;;;;;;9.23;1.55;;;16.30;99.90;;;;;;5075283;28;20130;-56
2023/07/03 10:29:21;;;;;;;9.13;1.55;;;16.40;99.90;;;;;;5074947;28;20253;-56
2023/07/03 10:31:58;;;;;;;8.88;1.60;;;16.30;99.90;;;;;;5075798;28;20065;-56
2023/07/03 10:34:31;;;;;;;10.60;1.55;;;16.20;99.90;;;;;;5075323;28;20224;-56
2023/07/03 10:37:05;;;;;;;6.72;1.70;;;16.10;99.90;;;;;;5075948;28;20159;-56
2023/07/03 10:39:41;;;;;;;9.73;1.83;;;15.90;99.90;;;;;;5074891;28;20117;-56
2023/07/03 10:42:30;;;;;;;13.45;1.98;;;15.40;99.90;;;;;;5075179;28;20038;-56
2023/07/03 10:45:01;;;;;;;10.27;1.60;;;15.60;99.90;;;;;;5073823;28;20071;-57
2023/07/03 10:47:56;;;;;;;11.47;2.17;;;15.50;99.90;;;;;;5073842;28;20099;-56
2023/07/03 10:50:34;;;;;;;11.55;2.85;;;15.60;99.90;;;;;;5074774;28;20643;-56
2023/07/03 10:53:09;;;;;;;6.88;1.73;;;15.80;99.90;;;;;;5073671;28;20436;-56
2023/07/03 10:55:45;;;;;;;13.07;2.20;;;16.30;99.90;;;;;;5074615;28;20450;-56
2023/07/03 10:58:44;;;;;;;7.38;1.42;;;16.50;99.90;;;;;;5074137;28;20751;-57
2023/07/03 11:01:25;;;;;;;10.65;1.80;;;16.70;99.90;;;;;;5074007;28;20277;-57
2023/07/03 11:04:14;;;;;;;8.90;1.45;;;17.10;99.90;;;;;;5073103;28;20358;-56
2023/07/03 11:06:51;;;;;;;7.53;1.40;;;17.60;99.90;;;;;;5074509;28;20044;-57
2023/07/03 11:09:27;;;;;;;6.78;1.73;;;18.10;99.90;;;;;;5074226;28;20412;-57
2023/07/03 11:11:59;;;;;;;5.95;1.10;;;18.30;99.90;;;;;;5073509;28;20138;-56
2023/07/03 11:14:39;;;;;;;4.22;0.98;;;18.40;99.90;;;;;;5073575;28;20081;-56
2023/07/03 11:17:17;;;;;;;7.03;1.08;;;18.40;99.90;;;;;;5074295;28;20048;-56
2023/07/03 11:19:49;;;;;;;6.15;1.13;;;18.20;99.90;;;;;;5072915;28;20177;-57
2023/07/03 11:22:17;;;;;;;;;;;18.10;99.90;;;;;;5056041;28;20048;-56
2023/07/03 11:25:01;;;;;;;7.10;1.33;;;17.80;99.90;;;;;;5074435;28;19971;-56
2023/07/03 11:27:38;;;;;;;3.90;0.98;;;17.50;99.90;;;;;;5073859;28;20044;-56
2023/07/03 11:30:07;;;;;;;5.20;1.25;;;17.60;99.90;;;;;;5055348;28;20166;-57
2023/07/03 11:32:35;;;;;;;7.43;1.40;;;17.50;99.90;;;;;;5074819;28;20161;-56
2023/07/03 11:35:03;;;;;;;7.00;1.40;;;17.20;99.90;;;;;;5075154;28;20036;-56
2023/07/03 11:37:58;;;;;;;11.60;2.72;;;16.90;99.90;;;;;;5075316;28;20078;-56
2023/07/03 11:40:25;;;;;;;7.30;1.10;;;17.00;99.90;;;;;;5075528;28;20052;-56
2023/07/03 11:43:17;;;;;;;6.07;1.30;;;16.90;99.90;;;;;;5074128;28;20235;-56
2023/07/03 11:45:58;;;;;;;9.02;1.48;;;17.30;99.90;;;;;;5075273;28;20127;-56
2023/07/03 11:48:39;;;;;;;5.15;1.00;;;18.30;99.90;;;;;;5074293;28;20040;-56
2023/07/03 11:51:14;;;;;;;7.30;1.27;;;18.40;99.90;;;;;;5055342;28;20044;-56
2023/07/03 11:53:46;;;;;;;7.63;1.45;;;18.30;99.90;;;;;;5074857;28;21044;-54
2023/07/03 11:56:30;;;;;;;8.65;1.63;;;18.10;99.90;;;;;;5074262;28;20035;-56
2023/07/03 11:59:05;;;;;;;8.15;1.40;;;17.90;99.90;;;;;;5073062;28;20050;-55
2023/07/03 12:01:31;;;;;;;5.63;1.20;;;17.90;99.90;;;;;;5073733;28;20093;-54
2023/07/03 12:04:02;;;;;;;6.57;1.33;;;17.60;99.90;;;;;;5072807;28;20044;-56
2023/07/03 12:06:40;;;;;;;11.02;1.83;;;17.70;99.90;;;;;;5073880;28;20051;-54
2023/07/03 12:09:21;;;;;;;6.82;1.70;;;17.30;99.90;;;;;;5073045;28;20257;-55
2023/07/03 12:12:14;;;;;;;6.00;1.70;;;17.40;99.90;;;;;;5073023;28;20044;-56
2023/07/03 12:14:40;;;;;;;7.30;1.33;;;17.60;99.90;;;;;;5063729;28;20056;-55
2023/07/03 12:17:19;;;;;;;8.75;1.60;;;17.70;99.90;;;;;;5054253;28;20091;-55
2023/07/03 12:19:46;;;;;;;13.50;1.92;;;17.30;99.90;;;;;;5073241;28;20048;-55
2023/07/03 12:22:18;;;;;;;6.65;1.63;;;17.10;99.90;;;;;;5072412;28;20054;-55
2023/07/03 12:24:45;;;;;;;8.02;1.77;;;17.30;99.90;;;;;;5072724;28;20047;-55
2023/07/03 12:27:11;;;;;;;22.75;2.55;;;17.10;99.90;;;;;;5053788;28;20044;-54
2023/07/03 12:29:45;;;;;;;6.13;1.40;;;17.10;99.90;;;;;;5071745;28;20408;-55
2023/07/03 12:32:12;;;;;;;6.47;1.45;;;16.90;99.90;;;;;;5071463;28;20052;-55
2023/07/03 12:34:40;;;;;;;8.98;1.60;;;17.10;99.90;;;;;;5072114;28;20050;-55
2023/07/03 12:37:12;;;;;;;8.00;1.92;;;17.00;99.90;;;;;;5072592;28;20393;-55
2023/07/03 12:39:38;;;;;;;6.70;1.10;;;16.90;99.90;;;;;;5072260;28;20052;-55
2023/07/03 12:42:09;;;;;;;6.25;1.42;;;16.90;99.90;;;;;;5073225;28;20060;-55
2023/07/03 12:44:36;;;;;;;13.25;1.67;;;17.00;99.90;;;;;;5072148;28;20055;-56
2023/07/03 12:47:16;;;;;;;6.38;1.67;;;17.00;99.90;;;;;;5071939;28;20116;-53
2023/07/03 12:50:00;;;;;;;7.90;1.13;;;17.00;99.90;;;;;;5071626;28;20121;-55